sensor_id;sensor_type;location;lat;lon;timestamp;temperature;humidity
22065;DHT22;11197;53.110;8.468;2022-08-19T00:00:35;18.70;99.90
22065;DHT22;11197;53.110;8.468;2022-08-19T00:03:02;18.70;99.90
22065;DHT22;11197;53.110;8.468;2022-08-19T00:05:28;18.70;99.90
22065;DHT22;11197;53.110;8.468;2022-08-19T00:07:54;18.70;99.90
22065;DHT22;11197;53.110;8.468;2022-08-19T00:10:21;18.70;99.90
22065;DHT22;11197;53.110;8.468;2022-08-19T00:12:47;18.70;99.90
22065;DHT22;11197;53.110;8.468;2022-08-19T00:15:15;18.70;99.90
22065;DHT22;11197;53.110;8.468;2022-08-19T00:17:43;18.70;99.90
22065;DHT22;11197;53.110;8.468;2022-08-19T00:20:18;18.60;99.90
22065;DHT22;11197;53.110;8.468;2022-08-19T00:22:46;18.60;99.90
22065;DHT22;11197;53.110;8.468;2022-08-19T00:25:15;18.60;99.90
22065;DHT22;11197;53.110;8.468;2022-08-19T00:27:41;18.60;99.90
22065;DHT22;11197;53.110;8.468;2022-08-19T00:30:08;18.60;99.90
22065;DHT22;11197;53.110;8.468;2022-08-19T00:32:36;18.60;99.90
22065;DHT22;11197;53.110;8.468;2022-08-19T00:35:03;18.60;99.90
22065;DHT22;11197;53.110;8.468;2022-08-19T00:37:29;18.60;99.90
22065;DHT22;11197;53.110;8.468;2022-08-19T00:39:55;18.50;99.90
22065;DHT22;11197;53.110;8.468;2022-08-19T00:42:21;18.60;99.90
22065;DHT22;11197;53.110;8.468;2022-08-19T00:44:47;18.60;99.90
22065;DHT22;11197;53.110;8.468;2022-08-19T00:47:14;18.60;99.90
22065;DHT22;11197;53.110;8.468;2022-08-19T00:49:43;18.60;99.90
22065;DHT22;11197;53.110;8.468;2022-08-19T00:52:19;18.60;99.90
22065;DHT22;11197;53.110;8.468;2022-08-19T00:54:47;18.50;99.90
22065;DHT22;11197;53.110;8.468;2022-08-19T00:57:17;18.60;99.90
22065;DHT22;11197;53.110;8.468;2022-08-19T00:59:47;18.50;99.90
22065;DHT22;11197;53.110;8.468;2022-08-19T01:02:15;18.50;99.90
22065;DHT22;11197;53.110;8.468;2022-08-19T01:04:41;18.50;99.90
22065;DHT22;11197;53.110;8.468;2022-08-19T01:07:07;18.50;99.90
22065;DHT22;11197;53.110;8.468;2022-08-19T01:09:33;18.50;99.90
22065;DHT22;11197;53.110;8.468;2022-08-19T01:11:59;18.50;99.90
22065;DHT22;11197;53.110;8.468;2022-08-19T01:14:26;18.50;99.90
22065;DHT22;11197;53.110;8.468;2022-08-19T01:16:53;18.50;99.90
22065;DHT22;11197;53.110;8.468;2022-08-19T01:19:28;18.50;99.90
22065;DHT22;11197;53.110;8.468;2022-08-19T01:22:12;18.50;99.90
22065;DHT22;11197;53.110;8.468;2022-08-19T01:24:43;18.50;99.90
22065;DHT22;11197;53.110;8.468;2022-08-19T01:27:09;18.40;99.90
22065;DHT22;11197;53.110;8.468;2022-08-19T01:29:39;18.40;99.90
22065;DHT22;11197;53.110;8.468;2022-08-19T01:32:07;18.40;99.90
22065;DHT22;11197;53.110;8.468;2022-08-19T01:34:34;18.40;99.90
22065;DHT22;11197;53.110;8.468;2022-08-19T01:37:06;18.40;99.90
22065;DHT22;11197;53.110;8.468;2022-08-19T01:39:33;18.40;99.90
22065;DHT22;11197;53.110;8.468;2022-08-19T01:41:59;18.40;99.90
22065;DHT22;11197;53.110;8.468;2022-08-19T01:44:29;18.40;99.90
22065;DHT22;11197;53.110;8.468;2022-08-19T01:46:55;18.40;99.90
22065;DHT22;11197;53.110;8.468;2022-08-19T01:49:24;18.40;99.90
22065;DHT22;11197;53.110;8.468;2022-08-19T01:51:53;18.40;99.90
22065;DHT22;11197;53.110;8.468;2022-08-19T01:54:20;18.40;99.90
22065;DHT22;11197;53.110;8.468;2022-08-19T01:56:47;18.40;99.90
22065;DHT22;11197;53.110;8.468;2022-08-19T01:59:17;18.40;99.90
22065;DHT22;11197;53.110;8.468;2022-08-19T02:01:44;18.40;99.90
22065;DHT22;11197;53.110;8.468;2022-08-19T02:04:10;18.40;99.90
22065;DHT22;11197;53.110;8.468;2022-08-19T02:06:37;18.40;99.90
22065;DHT22;11197;53.110;8.468;2022-08-19T02:09:07;18.40;99.90
22065;DHT22;11197;53.110;8.468;2022-08-19T02:11:35;18.40;99.90
22065;DHT22;11197;53.110;8.468;2022-08-19T02:14:04;18.40;99.90
22065;DHT22;11197;53.110;8.468;2022-08-19T02:16:32;18.40;99.90
22065;DHT22;11197;53.110;8.468;2022-08-19T02:18:58;18.40;99.90
22065;DHT22;11197;53.110;8.468;2022-08-19T02:21:28;18.40;99.90
22065;DHT22;11197;53.110;8.468;2022-08-19T02:23:55;18.30;99.90
22065;DHT22;11197;53.110;8.468;2022-08-19T02:26:21;18.30;99.90
22065;DHT22;11197;53.110;8.468;2022-08-19T02:28:47;18.30;99.90
22065;DHT22;11197;53.110;8.468;2022-08-19T02:31:16;18.20;99.90
22065;DHT22;11197;53.110;8.468;2022-08-19T02:33:44;18.20;99.90
22065;DHT22;11197;53.110;8.468;2022-08-19T02:36:12;18.10;99.90
22065;DHT22;11197;53.110;8.468;2022-08-19T02:38:39;18.10;99.90
22065;DHT22;11197;53.110;8.468;2022-08-19T02:41:12;18.10;99.90
22065;DHT22;11197;53.110;8.468;2022-08-19T02:43:39;18.00;99.90
22065;DHT22;11197;53.110;8.468;2022-08-19T02:46:19;18.00;99.90
22065;DHT22;11197;53.110;8.468;2022-08-19T02:48:52;17.90;99.90
22065;DHT22;11197;53.110;8.468;2022-08-19T02:51:23;17.90;99.90
22065;DHT22;11197;53.110;8.468;2022-08-19T02:53:49;17.80;99.90
22065;DHT22;11197;53.110;8.468;2022-08-19T02:56:15;17.80;99.90
22065;DHT22;11197;53.110;8.468;2022-08-19T02:58:42;17.80;99.90
22065;DHT22;11197;53.110;8.468;2022-08-19T03:01:09;17.80;99.90
22065;DHT22;11197;53.110;8.468;2022-08-19T03:03:36;17.80;99.90
22065;DHT22;11197;53.110;8.468;2022-08-19T03:06:14;17.70;99.90
22065;DHT22;11197;53.110;8.468;2022-08-19T03:08:42;17.70;99.90
22065;DHT22;11197;53.110;8.468;2022-08-19T03:11:18;17.70;99.90
22065;DHT22;11197;53.110;8.468;2022-08-19T03:13:44;17.70;99.90
22065;DHT22;11197;53.110;8.468;2022-08-19T03:16:12;17.70;99.90
22065;DHT22;11197;53.110;8.468;2022-08-19T03:18:38;17.70;99.90
22065;DHT22;11197;53.110;8.468;2022-08-19T03:21:05;17.60;99.90
22065;DHT22;11197;53.110;8.468;2022-08-19T03:23:31;17.60;99.90
22065;DHT22;11197;53.110;8.468;2022-08-19T03:25:57;17.60;99.90
22065;DHT22;11197;53.110;8.468;2022-08-19T03:28:23;17.50;99.90
22065;DHT22;11197;53.110;8.468;2022-08-19T03:31:02;17.50;99.90
22065;DHT22;11197;53.110;8.468;2022-08-19T03:33:29;17.50;99.90
22065;DHT22;11197;53.110;8.468;2022-08-19T03:36:10;17.50;99.90
22065;DHT22;11197;53.110;8.468;2022-08-19T03:38:43;17.40;99.90
22065;DHT22;11197;53.110;8.468;2022-08-19T03:41:19;17.40;99.90
22065;DHT22;11197;53.110;8.468;2022-08-19T03:43:46;17.40;99.90
22065;DHT22;11197;53.110;8.468;2022-08-19T03:46:17;17.40;99.90
22065;DHT22;11197;53.110;8.468;2022-08-19T03:48:47;17.40;99.90
22065;DHT22;11197;53.110;8.468;2022-08-19T03:51:18;17.40;99.90
22065;DHT22;11197;53.110;8.468;2022-08-19T03:53:46;17.30;99.90
22065;DHT22;11197;53.110;8.468;2022-08-19T03:56:12;17.30;99.90
22065;DHT22;11197;53.110;8.468;2022-08-19T03:58:40;17.20;99.90
22065;DHT22;11197;53.110;8.468;2022-08-19T04:01:15;17.30;99.90
22065;DHT22;11197;53.110;8.468;2022-08-19T04:03:41;17.20;99.90
22065;DHT22;11197;53.110;8.468;2022-08-19T04:08:36;17.20;99.90
22065;DHT22;11197;53.110;8.468;2022-08-19T04:11:07;17.10;99.90
22065;DHT22;11197;53.110;8.468;2022-08-19T04:13:33;17.10;99.90
22065;DHT22;11197;53.110;8.468;2022-08-19T04:15:59;17.10;99.90
22065;DHT22;11197;53.110;8.468;2022-08-19T04:18:26;17.10;99.90
22065;DHT22;11197;53.110;8.468;2022-08-19T04:20:53;17.10;99.90
22065;DHT22;11197;53.110;8.468;2022-08-19T04:23:19;17.00;99.90
22065;DHT22;11197;53.110;8.468;2022-08-19T04:25:44;17.00;99.90
22065;DHT22;11197;53.110;8.468;2022-08-19T04:28:14;17.00;99.90
22065;DHT22;11197;53.110;8.468;2022-08-19T04:30:46;17.00;99.90
22065;DHT22;11197;53.110;8.468;2022-08-19T04:33:14;17.00;99.90
22065;DHT22;11197;53.110;8.468;2022-08-19T04:35:47;17.00;99.90
22065;DHT22;11197;53.110;8.468;2022-08-19T04:38:16;16.90;99.90
22065;DHT22;11197;53.110;8.468;2022-08-19T04:40:45;16.90;99.90
22065;DHT22;11197;53.110;8.468;2022-08-19T04:43:32;16.90;99.90
22065;DHT22;11197;53.110;8.468;2022-08-19T04:45:58;16.80;99.90
22065;DHT22;11197;53.110;8.468;2022-08-19T04:48:30;16.80;99.90
22065;DHT22;11197;53.110;8.468;2022-08-19T04:50:57;16.80;99.90
22065;DHT22;11197;53.110;8.468;2022-08-19T04:53:29;16.80;99.90
22065;DHT22;11197;53.110;8.468;2022-08-19T04:55:57;16.80;99.90
22065;DHT22;11197;53.110;8.468;2022-08-19T04:58:24;16.80;99.90
22065;DHT22;11197;53.110;8.468;2022-08-19T05:00:51;16.70;99.90
22065;DHT22;11197;53.110;8.468;2022-08-19T05:03:17;16.70;99.90
22065;DHT22;11197;53.110;8.468;2022-08-19T05:05:45;16.70;99.90
22065;DHT22;11197;53.110;8.468;2022-08-19T05:08:15;16.70;99.90
22065;DHT22;11197;53.110;8.468;2022-08-19T05:10:52;16.70;99.90
22065;DHT22;11197;53.110;8.468;2022-08-19T05:13:19;16.70;99.90
22065;DHT22;11197;53.110;8.468;2022-08-19T05:15:56;16.70;99.90
22065;DHT22;11197;53.110;8.468;2022-08-19T05:18:23;16.70;99.90
22065;DHT22;11197;53.110;8.468;2022-08-19T05:21:10;16.70;99.90
22065;DHT22;11197;53.110;8.468;2022-08-19T05:23:55;16.70;99.90
22065;DHT22;11197;53.110;8.468;2022-08-19T05:26:21;16.70;99.90
22065;DHT22;11197;53.110;8.468;2022-08-19T05:28:47;16.70;99.90
22065;DHT22;11197;53.110;8.468;2022-08-19T05:31:13;16.70;99.90
22065;DHT22;11197;53.110;8.468;2022-08-19T05:33:39;16.70;99.90
22065;DHT22;11197;53.110;8.468;2022-08-19T05:36:06;16.80;99.90
22065;DHT22;11197;53.110;8.468;2022-08-19T05:38:34;16.80;99.90
22065;DHT22;11197;53.110;8.468;2022-08-19T05:41:12;16.80;99.90
22065;DHT22;11197;53.110;8.468;2022-08-19T05:43:39;16.80;99.90
22065;DHT22;11197;53.110;8.468;2022-08-19T05:46:06;16.80;99.90
22065;DHT22;11197;53.110;8.468;2022-08-19T05:48:33;16.80;99.90
22065;DHT22;11197;53.110;8.468;2022-08-19T05:51:04;16.80;99.90
22065;DHT22;11197;53.110;8.468;2022-08-19T05:53:32;16.90;99.90
22065;DHT22;11197;53.110;8.468;2022-08-19T05:56:08;17.30;99.90
22065;DHT22;11197;53.110;8.468;2022-08-19T05:58:36;17.70;99.90
22065;DHT22;11197;53.110;8.468;2022-08-19T06:01:04;18.20;99.90
22065;DHT22;11197;53.110;8.468;2022-08-19T06:03:35;18.70;99.90
22065;DHT22;11197;53.110;8.468;2022-08-19T06:06:04;18.90;99.90
22065;DHT22;11197;53.110;8.468;2022-08-19T06:08:31;18.90;99.90
22065;DHT22;11197;53.110;8.468;2022-08-19T06:10:58;18.80;99.90
22065;DHT22;11197;53.110;8.468;2022-08-19T06:13:36;18.70;99.90
22065;DHT22;11197;53.110;8.468;2022-08-19T06:16:03;18.50;99.90
22065;DHT22;11197;53.110;8.468;2022-08-19T06:18:30;18.50;99.90
22065;DHT22;11197;53.110;8.468;2022-08-19T06:20:56;18.30;99.90
22065;DHT22;11197;53.110;8.468;2022-08-19T06:23:22;18.20;99.90
22065;DHT22;11197;53.110;8.468;2022-08-19T06:25:48;18.10;99.90
22065;DHT22;11197;53.110;8.468;2022-08-19T06:28:14;18.10;99.90
22065;DHT22;11197;53.110;8.468;2022-08-19T06:30:40;18.00;99.90
22065;DHT22;11197;53.110;8.468;2022-08-19T06:33:06;18.00;99.90
22065;DHT22;11197;53.110;8.468;2022-08-19T06:35:32;18.10;99.90
22065;DHT22;11197;53.110;8.468;2022-08-19T06:37:58;18.00;99.90
22065;DHT22;11197;53.110;8.468;2022-08-19T06:40:24;18.10;99.90
22065;DHT22;11197;53.110;8.468;2022-08-19T06:42:53;18.10;99.90
22065;DHT22;11197;53.110;8.468;2022-08-19T06:45:19;18.10;99.90
22065;DHT22;11197;53.110;8.468;2022-08-19T06:47:46;18.10;99.90
22065;DHT22;11197;53.110;8.468;2022-08-19T06:50:14;18.20;99.90
22065;DHT22;11197;53.110;8.468;2022-08-19T06:52:40;18.30;99.90
22065;DHT22;11197;53.110;8.468;2022-08-19T06:55:06;18.30;99.90
22065;DHT22;11197;53.110;8.468;2022-08-19T06:57:33;18.40;99.90
22065;DHT22;11197;53.110;8.468;2022-08-19T06:59:59;18.50;99.90
22065;DHT22;11197;53.110;8.468;2022-08-19T07:02:25;18.60;99.90
22065;DHT22;11197;53.110;8.468;2022-08-19T07:04:52;18.60;99.90
22065;DHT22;11197;53.110;8.468;2022-08-19T07:07:20;18.70;99.90
22065;DHT22;11197;53.110;8.468;2022-08-19T07:09:46;18.70;99.90
22065;DHT22;11197;53.110;8.468;2022-08-19T07:12:13;18.80;99.90
22065;DHT22;11197;53.110;8.468;2022-08-19T07:14:43;18.90;99.90
22065;DHT22;11197;53.110;8.468;2022-08-19T07:17:12;19.00;99.90
22065;DHT22;11197;53.110;8.468;2022-08-19T07:19:39;19.00;99.90
22065;DHT22;11197;53.110;8.468;2022-08-19T07:22:07;19.00;99.90
22065;DHT22;11197;53.110;8.468;2022-08-19T07:24:36;19.00;99.90
22065;DHT22;11197;53.110;8.468;2022-08-19T07:27:04;19.10;99.90
22065;DHT22;11197;53.110;8.468;2022-08-19T07:29:32;19.00;99.90
22065;DHT22;11197;53.110;8.468;2022-08-19T07:32:00;19.00;99.90
22065;DHT22;11197;53.110;8.468;2022-08-19T07:34:28;19.10;99.90
22065;DHT22;11197;53.110;8.468;2022-08-19T07:36:55;19.10;99.90
22065;DHT22;11197;53.110;8.468;2022-08-19T07:39:30;19.10;99.90
22065;DHT22;11197;53.110;8.468;2022-08-19T07:41:59;19.10;99.90
22065;DHT22;11197;53.110;8.468;2022-08-19T07:44:25;19.20;99.90
22065;DHT22;11197;53.110;8.468;2022-08-19T07:46:55;19.20;99.90
22065;DHT22;11197;53.110;8.468;2022-08-19T07:49:22;19.20;99.90
22065;DHT22;11197;53.110;8.468;2022-08-19T07:52:02;19.20;99.90
22065;DHT22;11197;53.110;8.468;2022-08-19T07:54:31;19.30;99.90
22065;DHT22;11197;53.110;8.468;2022-08-19T07:56:59;19.30;99.90
22065;DHT22;11197;53.110;8.468;2022-08-19T07:59:26;19.40;99.90
22065;DHT22;11197;53.110;8.468;2022-08-19T08:01:52;19.40;99.90
22065;DHT22;11197;53.110;8.468;2022-08-19T08:04:19;19.50;99.90
22065;DHT22;11197;53.110;8.468;2022-08-19T08:07:06;19.60;99.90
22065;DHT22;11197;53.110;8.468;2022-08-19T08:09:51;19.60;99.90
22065;DHT22;11197;53.110;8.468;2022-08-19T08:12:27;19.60;99.90
22065;DHT22;11197;53.110;8.468;2022-08-19T08:14:56;19.60;99.90
22065;DHT22;11197;53.110;8.468;2022-08-19T08:17:26;19.60;99.90
22065;DHT22;11197;53.110;8.468;2022-08-19T08:19:53;19.70;99.90
22065;DHT22;11197;53.110;8.468;2022-08-19T08:22:20;19.80;99.90
22065;DHT22;11197;53.110;8.468;2022-08-19T08:25:11;19.80;99.90
22065;DHT22;11197;53.110;8.468;2022-08-19T08:27:39;19.90;99.90
22065;DHT22;11197;53.110;8.468;2022-08-19T08:30:16;19.90;99.90
22065;DHT22;11197;53.110;8.468;2022-08-19T08:32:42;20.00;99.90
22065;DHT22;11197;53.110;8.468;2022-08-19T08:35:12;20.00;99.90
22065;DHT22;11197;53.110;8.468;2022-08-19T08:37:41;20.00;99.90
22065;DHT22;11197;53.110;8.468;2022-08-19T08:40:33;20.00;99.90
22065;DHT22;11197;53.110;8.468;2022-08-19T08:45:36;20.10;99.90
22065;DHT22;11197;53.110;8.468;2022-08-19T08:48:18;20.10;99.90
22065;DHT22;11197;53.110;8.468;2022-08-19T08:50:45;20.10;99.90
22065;DHT22;11197;53.110;8.468;2022-08-19T08:53:16;20.20;99.90
22065;DHT22;11197;53.110;8.468;2022-08-19T08:55:43;20.30;99.90
22065;DHT22;11197;53.110;8.468;2022-08-19T08:58:20;20.40;99.90
22065;DHT22;11197;53.110;8.468;2022-08-19T09:00:50;20.40;99.90
22065;DHT22;11197;53.110;8.468;2022-08-19T09:03:17;20.50;99.90
22065;DHT22;11197;53.110;8.468;2022-08-19T09:10:58;20.50;99.90
22065;DHT22;11197;53.110;8.468;2022-08-19T09:13:38;20.50;99.90
22065;DHT22;11197;53.110;8.468;2022-08-19T09:16:18;20.50;99.90
22065;DHT22;11197;53.110;8.468;2022-08-19T09:18:50;20.50;99.90
22065;DHT22;11197;53.110;8.468;2022-08-19T09:21:21;20.60;99.90
22065;DHT22;11197;53.110;8.468;2022-08-19T09:23:49;20.60;99.90
22065;DHT22;11197;53.110;8.468;2022-08-19T09:26:19;20.60;99.90
22065;DHT22;11197;53.110;8.468;2022-08-19T09:28:49;20.60;99.90
22065;DHT22;11197;53.110;8.468;2022-08-19T09:31:23;20.70;99.90
22065;DHT22;11197;53.110;8.468;2022-08-19T09:33:52;20.80;99.90
22065;DHT22;11197;53.110;8.468;2022-08-19T09:36:28;20.80;99.90
22065;DHT22;11197;53.110;8.468;2022-08-19T09:38:56;20.80;99.90
22065;DHT22;11197;53.110;8.468;2022-08-19T09:41:24;20.80;99.90
22065;DHT22;11197;53.110;8.468;2022-08-19T09:43:53;20.80;99.90
22065;DHT22;11197;53.110;8.468;2022-08-19T09:46:19;20.80;99.90
22065;DHT22;11197;53.110;8.468;2022-08-19T09:48:49;20.90;99.90
22065;DHT22;11197;53.110;8.468;2022-08-19T09:51:20;21.00;99.90
22065;DHT22;11197;53.110;8.468;2022-08-19T09:53:47;21.10;99.90
22065;DHT22;11197;53.110;8.468;2022-08-19T09:56:17;21.10;99.90
22065;DHT22;11197;53.110;8.468;2022-08-19T09:58:44;21.20;99.90
22065;DHT22;11197;53.110;8.468;2022-08-19T10:01:16;21.20;99.90
22065;DHT22;11197;53.110;8.468;2022-08-19T10:03:43;21.20;99.90
22065;DHT22;11197;53.110;8.468;2022-08-19T10:06:09;21.30;99.90
22065;DHT22;11197;53.110;8.468;2022-08-19T10:08:36;21.30;99.90
22065;DHT22;11197;53.110;8.468;2022-08-19T10:11:05;21.30;99.90
22065;DHT22;11197;53.110;8.468;2022-08-19T10:13:32;21.40;99.90
22065;DHT22;11197;53.110;8.468;2022-08-19T10:16:07;21.40;99.90
22065;DHT22;11197;53.110;8.468;2022-08-19T10:18:36;21.40;99.90
22065;DHT22;11197;53.110;8.468;2022-08-19T10:21:14;21.40;99.90
22065;DHT22;11197;53.110;8.468;2022-08-19T10:23:45;21.40;99.90
22065;DHT22;11197;53.110;8.468;2022-08-19T10:26:21;21.50;99.90
22065;DHT22;11197;53.110;8.468;2022-08-19T10:28:48;21.50;99.90
22065;DHT22;11197;53.110;8.468;2022-08-19T10:31:18;21.50;99.90
22065;DHT22;11197;53.110;8.468;2022-08-19T10:33:46;21.50;99.90
22065;DHT22;11197;53.110;8.468;2022-08-19T10:36:21;21.60;99.90
22065;DHT22;11197;53.110;8.468;2022-08-19T10:38:50;21.60;99.90
22065;DHT22;11197;53.110;8.468;2022-08-19T10:41:19;21.70;99.90
22065;DHT22;11197;53.110;8.468;2022-08-19T10:43:45;21.70;99.90
22065;DHT22;11197;53.110;8.468;2022-08-19T10:46:14;21.70;99.90
22065;DHT22;11197;53.110;8.468;2022-08-19T10:48:41;21.70;99.90
22065;DHT22;11197;53.110;8.468;2022-08-19T10:51:08;21.80;99.90
22065;DHT22;11197;53.110;8.468;2022-08-19T10:53:53;21.80;99.90
22065;DHT22;11197;53.110;8.468;2022-08-19T10:56:20;21.90;99.90
22065;DHT22;11197;53.110;8.468;2022-08-19T10:59:04;21.90;99.90
22065;DHT22;11197;53.110;8.468;2022-08-19T11:01:31;22.00;99.90
22065;DHT22;11197;53.110;8.468;2022-08-19T11:04:00;22.00;99.90
22065;DHT22;11197;53.110;8.468;2022-08-19T11:06:26;22.00;99.90
22065;DHT22;11197;53.110;8.468;2022-08-19T11:08:54;22.00;99.90
22065;DHT22;11197;53.110;8.468;2022-08-19T11:11:20;22.00;99.90
22065;DHT22;11197;53.110;8.468;2022-08-19T11:13:47;22.00;99.40
22065;DHT22;11197;53.110;8.468;2022-08-19T11:16:21;22.10;98.90
22065;DHT22;11197;53.110;8.468;2022-08-19T11:18:50;22.10;99.20
22065;DHT22;11197;53.110;8.468;2022-08-19T11:21:20;22.10;99.20
22065;DHT22;11197;53.110;8.468;2022-08-19T11:23:48;22.20;99.30
22065;DHT22;11197;53.110;8.468;2022-08-19T11:26:16;22.20;99.40
22065;DHT22;11197;53.110;8.468;2022-08-19T11:28:43;22.20;99.30
22065;DHT22;11197;53.110;8.468;2022-08-19T11:31:11;22.30;99.30
22065;DHT22;11197;53.110;8.468;2022-08-19T11:33:37;22.30;99.20
22065;DHT22;11197;53.110;8.468;2022-08-19T11:36:03;22.30;99.30
22065;DHT22;11197;53.110;8.468;2022-08-19T11:38:29;22.40;99.40
22065;DHT22;11197;53.110;8.468;2022-08-19T11:41:00;22.40;99.50
22065;DHT22;11197;53.110;8.468;2022-08-19T11:43:27;22.40;99.60
22065;DHT22;11197;53.110;8.468;2022-08-19T11:45:54;22.50;99.50
22065;DHT22;11197;53.110;8.468;2022-08-19T11:48:22;22.50;99.60
22065;DHT22;11197;53.110;8.468;2022-08-19T11:50:49;22.60;99.50
22065;DHT22;11197;53.110;8.468;2022-08-19T11:53:16;22.60;99.80
22065;DHT22;11197;53.110;8.468;2022-08-19T11:55:43;22.70;99.70
22065;DHT22;11197;53.110;8.468;2022-08-19T11:58:11;22.70;99.80
22065;DHT22;11197;53.110;8.468;2022-08-19T12:00:38;22.70;99.20
22065;DHT22;11197;53.110;8.468;2022-08-19T12:03:04;22.80;98.80
22065;DHT22;11197;53.110;8.468;2022-08-19T12:05:30;22.90;98.20
22065;DHT22;11197;53.110;8.468;2022-08-19T12:07:56;22.90;97.80
22065;DHT22;11197;53.110;8.468;2022-08-19T12:10:23;23.00;98.00
22065;DHT22;11197;53.110;8.468;2022-08-19T12:12:49;23.00;98.30
22065;DHT22;11197;53.110;8.468;2022-08-19T12:15:15;23.10;98.30
22065;DHT22;11197;53.110;8.468;2022-08-19T12:17:42;23.10;98.50
22065;DHT22;11197;53.110;8.468;2022-08-19T12:20:10;23.10;98.70
22065;DHT22;11197;53.110;8.468;2022-08-19T12:22:37;23.10;98.90
22065;DHT22;11197;53.110;8.468;2022-08-19T12:25:05;23.10;98.80
22065;DHT22;11197;53.110;8.468;2022-08-19T12:27:31;23.20;97.80
22065;DHT22;11197;53.110;8.468;2022-08-19T12:29:57;23.20;97.60
22065;DHT22;11197;53.110;8.468;2022-08-19T12:32:23;23.20;97.90
22065;DHT22;11197;53.110;8.468;2022-08-19T12:34:50;23.20;97.40
22065;DHT22;11197;53.110;8.468;2022-08-19T12:37:16;23.30;97.00
22065;DHT22;11197;53.110;8.468;2022-08-19T12:39:42;23.40;97.20
22065;DHT22;11197;53.110;8.468;2022-08-19T12:42:11;23.40;97.00
22065;DHT22;11197;53.110;8.468;2022-08-19T12:44:39;23.50;97.20
22065;DHT22;11197;53.110;8.468;2022-08-19T12:47:06;23.50;97.20
22065;DHT22;11197;53.110;8.468;2022-08-19T12:49:33;23.50;97.40
22065;DHT22;11197;53.110;8.468;2022-08-19T12:52:00;23.60;97.40
22065;DHT22;11197;53.110;8.468;2022-08-19T12:54:27;23.60;96.40
22065;DHT22;11197;53.110;8.468;2022-08-19T12:56:53;23.60;96.60
22065;DHT22;11197;53.110;8.468;2022-08-19T12:59:19;23.70;96.80
22065;DHT22;11197;53.110;8.468;2022-08-19T13:01:45;23.70;96.80
22065;DHT22;11197;53.110;8.468;2022-08-19T13:04:11;23.80;96.20
22065;DHT22;11197;53.110;8.468;2022-08-19T13:06:37;23.90;96.10
22065;DHT22;11197;53.110;8.468;2022-08-19T13:09:04;23.90;96.10
22065;DHT22;11197;53.110;8.468;2022-08-19T13:11:31;24.00;95.60
22065;DHT22;11197;53.110;8.468;2022-08-19T13:14:00;24.00;95.50
22065;DHT22;11197;53.110;8.468;2022-08-19T13:16:27;24.00;95.50
22065;DHT22;11197;53.110;8.468;2022-08-19T13:18:54;24.00;95.70
22065;DHT22;11197;53.110;8.468;2022-08-19T13:21:25;24.00;95.40
22065;DHT22;11197;53.110;8.468;2022-08-19T13:23:51;24.10;95.50
22065;DHT22;11197;53.110;8.468;2022-08-19T13:26:18;24.10;95.60
22065;DHT22;11197;53.110;8.468;2022-08-19T13:28:45;24.20;95.90
22065;DHT22;11197;53.110;8.468;2022-08-19T13:31:33;24.30;96.10
22065;DHT22;11197;53.110;8.468;2022-08-19T13:34:33;24.30;95.70
22065;DHT22;11197;53.110;8.468;2022-08-19T13:37:01;24.40;95.90
22065;DHT22;11197;53.110;8.468;2022-08-19T13:39:29;24.40;95.70
22065;DHT22;11197;53.110;8.468;2022-08-19T13:41:55;24.40;95.40
22065;DHT22;11197;53.110;8.468;2022-08-19T13:44:21;24.50;95.30
22065;DHT22;11197;53.110;8.468;2022-08-19T13:46:48;24.50;95.60
22065;DHT22;11197;53.110;8.468;2022-08-19T13:49:16;24.60;95.90
22065;DHT22;11197;53.110;8.468;2022-08-19T13:51:43;24.70;95.70
22065;DHT22;11197;53.110;8.468;2022-08-19T13:54:11;24.70;95.40
22065;DHT22;11197;53.110;8.468;2022-08-19T13:56:45;24.80;95.40
22065;DHT22;11197;53.110;8.468;2022-08-19T13:59:12;24.80;95.20
22065;DHT22;11197;53.110;8.468;2022-08-19T14:01:38;24.80;94.90
22065;DHT22;11197;53.110;8.468;2022-08-19T14:04:05;24.80;95.20
22065;DHT22;11197;53.110;8.468;2022-08-19T14:06:32;24.80;95.20
22065;DHT22;11197;53.110;8.468;2022-08-19T14:08:58;24.90;94.80
22065;DHT22;11197;53.110;8.468;2022-08-19T14:11:24;25.00;94.50
22065;DHT22;11197;53.110;8.468;2022-08-19T14:13:50;25.00;94.50
22065;DHT22;11197;53.110;8.468;2022-08-19T14:16:16;25.00;93.80
22065;DHT22;11197;53.110;8.468;2022-08-19T14:18:43;25.00;93.80
22065;DHT22;11197;53.110;8.468;2022-08-19T14:21:15;25.10;93.60
22065;DHT22;11197;53.110;8.468;2022-08-19T14:23:43;25.10;93.30
22065;DHT22;11197;53.110;8.468;2022-08-19T14:26:13;25.20;93.40
22065;DHT22;11197;53.110;8.468;2022-08-19T14:28:40;25.20;92.60
22065;DHT22;11197;53.110;8.468;2022-08-19T14:31:14;25.20;92.60
22065;DHT22;11197;53.110;8.468;2022-08-19T14:33:42;25.20;92.70
22065;DHT22;11197;53.110;8.468;2022-08-19T14:36:08;25.30;93.20
22065;DHT22;11197;53.110;8.468;2022-08-19T14:38:34;25.30;92.90
22065;DHT22;11197;53.110;8.468;2022-08-19T14:41:13;25.30;93.00
22065;DHT22;11197;53.110;8.468;2022-08-19T14:43:42;25.40;92.90
22065;DHT22;11197;53.110;8.468;2022-08-19T14:46:11;25.40;92.90
22065;DHT22;11197;53.110;8.468;2022-08-19T14:48:38;25.50;92.60
22065;DHT22;11197;53.110;8.468;2022-08-19T14:51:05;25.40;92.70
22065;DHT22;11197;53.110;8.468;2022-08-19T14:53:31;25.50;92.90
22065;DHT22;11197;53.110;8.468;2022-08-19T14:56:00;25.40;92.80
22065;DHT22;11197;53.110;8.468;2022-08-19T14:58:27;25.50;93.10
22065;DHT22;11197;53.110;8.468;2022-08-19T15:00:53;25.50;93.00
22065;DHT22;11197;53.110;8.468;2022-08-19T15:03:20;25.50;92.90
22065;DHT22;11197;53.110;8.468;2022-08-19T15:05:47;25.50;92.90
22065;DHT22;11197;53.110;8.468;2022-08-19T15:08:14;25.60;93.10
22065;DHT22;11197;53.110;8.468;2022-08-19T15:10:40;25.60;93.50
22065;DHT22;11197;53.110;8.468;2022-08-19T15:13:06;25.70;93.40
22065;DHT22;11197;53.110;8.468;2022-08-19T15:15:33;25.70;93.20
22065;DHT22;11197;53.110;8.468;2022-08-19T15:17:59;25.70;93.30
22065;DHT22;11197;53.110;8.468;2022-08-19T15:20:29;25.70;93.20
22065;DHT22;11197;53.110;8.468;2022-08-19T15:22:55;25.80;93.00
22065;DHT22;11197;53.110;8.468;2022-08-19T15:25:21;25.90;93.10
22065;DHT22;11197;53.110;8.468;2022-08-19T15:27:48;25.90;92.70
22065;DHT22;11197;53.110;8.468;2022-08-19T15:30:22;25.90;92.60
22065;DHT22;11197;53.110;8.468;2022-08-19T15:32:49;25.90;92.50
22065;DHT22;11197;53.110;8.468;2022-08-19T15:35:16;25.90;92.50
22065;DHT22;11197;53.110;8.468;2022-08-19T15:37:45;26.00;92.50
22065;DHT22;11197;53.110;8.468;2022-08-19T15:40:13;26.10;92.00
22065;DHT22;11197;53.110;8.468;2022-08-19T15:42:40;26.10;92.20
22065;DHT22;11197;53.110;8.468;2022-08-19T15:45:09;26.10;92.20
22065;DHT22;11197;53.110;8.468;2022-08-19T15:47:36;26.10;92.30
22065;DHT22;11197;53.110;8.468;2022-08-19T15:50:08;26.20;92.90